Miguel Alves, Brazil
Current Conditions -  °F | °C
As of 1:00 PM on Monday 22 Dec 2014 (Local Time) from SBTE Reporting Station
Scattered Clouds Scattered Clouds  
Wind Chill: 35°   Ceiling: Unl
Heat Index: 36°   Visibility: 6mi
Dew Point: 18°   Wind: 10mph
Humidity: 36%   Direction: 160°SSE
Pressure: 29.83"   Gusts: NA
Location:  4.17°S, 42.9°W
Report Text: SBTE 221600Z 16009KT 9999 SCT020 35/18 Q1010
Loading
Personal Weather Stations






























Interactive Weather Map New forecast layout! Learn more

10-Day Weather Forecast

Advertisements
Track Severe Weather on mobile